Date,TemperatureHighF,TemperatureAvgF,TemperatureLowF,DewpointHighF,DewpointAvgF,DewpointLowF,HumidityHigh,HumidityAvg,HumidityLow,PressureMaxIn,PressureMinIn,WindSpeedMaxMPH,WindSpeedAvgMPH,GustSpeedMaxMPH,PrecipitationSumIn
2012-1-1,64,56,43,59,45,28,92,69,47,30.37,30.12,19,8,0,0.00
2012-1-2,43,37,28,26,15,7,57,41,29,30.45,30.27,22,8,0,0.00
2012-1-3,33,26,20,19,13,8,88,60,41,30.64,30.45,21,4,0,0.17
2012-1-4,50,34,19,33,23,15,88,68,31,30.52,30.30,18,3,0,0.34
2012-1-5,59,44,28,39,34,26,96,72,35,30.36,30.22,7,1,0,0.18
2012-1-6,64,48,31,50,40,29,95,78,50,30.27,30.11,15,2,0,0.02
2012-1-7,60,55,50,57,53,49,98,93,87,30.20,30.10,10,4,0,0.02
2012-1-8,58,55,52,58,54,51,98,98,96,30.26,30.18,5,0,0,0.00
2012-1-9,64,58,55,60,57,55,99,96,86,30.24,30.12,14,2,0,0.01
2012-1-10,59,57,56,58,56,55,99,97,92,30.14,29.80,8,1,0,0.02
2012-1-11,60,51,47,58,50,46,98,95,83,29.79,29.59,27,8,0,0.27
2012-1-12,48,40,26,47,37,20,98,90,75,30.10,29.71,19,9,0,0.05
2012-1-13,34,28,24,23,20,16,80,71,59,30.35,30.10,15,5,0,0.55
2012-1-14,53,39,23,29,24,19,89,58,35,30.40,30.17,23,6,0,0.51
2012-1-15,54,41,31,30,27,22,81,59,30,30.57,30.36,9,1,0,0.11
2012-1-16,58,50,38,41,30,26,64,48,35,30.51,30.27,11,2,0,0.11
2012-1-17,63,56,40,60,52,37,95,89,66,30.28,29.99,20,9,0,0.36
2012-1-18,40,34,28,36,28,25,92,78,61,30.33,30.19,15,5,0,0.05
2012-1-19,57,43,27,38,29,25,94,62,30,30.25,30.09,12,2,0,0.05
2012-1-20,65,55,50,63,52,39,98,90,58,30.11,29.97,16,2,0,0.25
2012-1-21,65,54,42,62,53,42,98,94,87,30.13,29.91,19,7,0,0.36
2012-1-22,58,53,44,57,52,44,99,97,93,30.16,29.98,12,4,0,0.02
2012-1-23,67,60,47,63,51,35,98,73,31,30.14,29.89,19,6,0,0.11
2012-1-24,59,46,36,42,37,33,96,72,38,30.33,30.15,7,1,0,0.01
2012-1-25,69,56,39,55,44,35,88,66,46,30.31,30.07,9,2,0,0.01
2012-1-26,64,59,53,62,58,50,98,94,83,30.06,29.71,16,4,0,1.00
2012-1-27,53,45,37,50,40,36,95,82,61,30.16,29.80,13,4,0,0.12
2012-1-28,53,42,33,42,31,21,97,69,30,30.45,30.14,16,3,0,0.08
2012-1-29,53,38,25,28,24,18,94,61,26,30.55,30.44,10,1,0,0.20
2012-1-30,61,45,31,27,24,22,82,47,24,30.52,30.39,12,2,0,0.20
2012-1-31,62,54,46,46,33,24,66,47,30,30.43,30.29,9,1,0,0.00
2012-2-1,57,55,52,56,53,46,98,94,67,30.29,30.11,19,2,0,0.69
2012-2-2,64,55,47,54,47,35,98,79,41,30.36,30.16,8,2,0,0.69
2012-2-3,60,52,40,47,39,34,83,62,47,30.40,30.29,12,3,0,0.01
2012-2-4,67,57,49,60,52,45,97,85,78,30.30,30.09,17,4,0,0.47
2012-2-5,58,54,46,57,50,44,98,89,70,30.23,30.10,8,3,0,0.47
2012-2-6,54,46,38,45,41,36,97,84,64,30.32,30.23,7,2,0,0.00
2012-2-7,56,45,33,40,35,28,97,71,36,30.32,30.23,7,1,0,0.00
2012-2-8,50,46,40,41,36,35,84,70,59,30.38,30.25,14,4,0,0.00
2012-2-9,48,40,33,34,31,27,90,71,53,30.40,30.28,7,2,0,0.00
2012-2-10,48,40,32,36,34,31,95,79,58,30.28,30.11,10,2,0,0.00
2012-2-11,39,31,24,36,20,7,91,67,41,30.55,30.09,26,9,0,0.01
2012-2-12,37,27,20,19,12,9,81,56,37,30.61,30.45,18,4,0,0.00
2012-2-13,48,35,20,34,22,17,90,63,34,30.45,30.14,6,1,0,0.03
2012-2-14,48,43,37,45,40,34,96,91,83,30.22,30.05,6,1,0,0.01
2012-2-15,65,51,36,50,43,34,97,76,48,30.30,30.15,7,1,0,0.02
2012-2-16,62,54,48,55,49,44,97,85,65,30.23,30.11,11,3,0,0.31
2012-2-17,61,50,42,44,42,40,95,75,49,30.24,30.14,8,1,0,0.00
2012-2-18,58,49,38,49,43,36,95,80,57,30.14,29.89,8,2,0,0.24
2012-2-19,50,43,36,47,41,32,96,91,83,30.20,29.80,20,7,0,0.21
2012-2-20,59,43,28,39,33,26,96,71,31,30.33,30.18,9,1,0,0.21
2012-2-21,65,52,42,49,37,27,90,61,24,30.27,30.08,18,6,0,0.01
2012-2-22,67,58,42,58,52,29,96,81,58,30.08,29.68,23,10,0,0.05
2012-2-23,76,66,59,63,56,-100,96,76,53,29.72,29.53,26,-12,0,0.01
2012-2-24,69,54,40,63,38,24,86,57,31,30.26,29.65,21,9,0,0.00
2012-2-25,52,40,28,31,24,16,94,58,25,30.42,30.26,19,3,0,0.00
2012-2-26,62,48,34,33,26,20,78,46,24,30.49,30.34,11,2,0,0.00
2012-2-27,67,56,46,48,42,31,89,62,43,30.47,30.38,6,0,0,0.00
2012-2-28,68,56,44,59,51,41,97,84,47,30.41,30.21,8,1,0,0.15
2012-2-29,69,63,60,64,58,-100,97,89,81,30.21,29.95,17,-12,0,0.12
2012-3-1,73,63,54,64,51,36,95,67,34,30.05,29.88,11,3,0,0.05
2012-3-2,78,69,60,65,62,58,95,81,57,29.88,29.68,30,11,0,0.09
2012-3-3,58,49,41,53,33,24,85,57,32,30.00,29.71,17,6,0,0.09
2012-3-4,53,45,32,29,26,22,82,48,31,30.16,29.99,16,6,0,0.04
2012-3-5,52,46,36,32,27,24,72,49,34,30.54,30.09,18,6,0,0.02
2012-3-6,65,47,35,33,22,-100,70,43,23,30.59,30.45,10,-11,0,0.01
2012-3-7,71,59,49,51,46,33,82,64,48,30.52,30.35,14,3,0,0.02
2012-3-8,75,63,54,62,56,50,96,78,58,30.35,30.13,26,5,0,0.03
2012-3-9,57,50,44,53,36,29,96,63,35,30.46,30.22,17,6,0,0.05
2012-3-10,66,53,38,40,33,26,69,48,31,30.52,30.37,8,2,0,0.05
2012-3-11,69,59,47,53,46,32,72,62,46,30.51,30.31,11,4,0,0.04
2012-3-12,66,62,58,61,58,53,95,88,73,30.34,30.22,10,2,0,0.03
2012-3-13,77,67,59,64,60,56,97,80,51,30.30,30.19,12,4,0,0.02
2012-3-14,79,65,55,66,60,54,98,86,54,30.34,30.22,7,1,0,0.01
2012-3-15,81,68,56,66,59,54,98,77,41,30.34,30.18,14,2,0,0.02
2012-3-16,77,66,56,64,59,54,93,79,57,30.28,30.17,12,2,0,0.02
2012-3-17,82,71,60,62,59,55,92,69,41,30.29,30.16,13,2,0,0.02
2012-3-18,83,69,57,58,53,43,89,61,31,30.32,30.17,11,2,0,0.01
2012-3-19,83,69,56,60,56,53,92,67,41,30.24,30.11,6,1,0,0.01
2012-3-20,84,72,59,61,57,54,89,61,39,30.17,30.04,15,2,0,0.02
2012-3-21,80,71,62,63,58,55,85,66,48,30.19,30.08,9,2,0,0.00
2012-3-22,76,67,62,64,62,59,96,84,61,30.18,30.07,9,2,0,0.47
2012-3-23,75,67,62,67,64,54,98,89,70,30.12,29.93,11,3,0,0.06
2012-3-24,67,58,48,53,50,47,96,77,50,30.00,29.89,12,3,0,0.02
2012-3-25,70,57,44,55,50,44,98,77,52,30.07,29.98,10,2,0,0.02
2012-3-26,77,64,49,57,53,48,97,70,45,30.15,30.06,12,2,0,0.02
2012-3-27,81,62,52,56,47,-100,84,64,35,30.25,30.13,9,-25,0,0.01
2012-3-28,78,66,56,59,54,50,88,67,39,30.23,30.07,17,3,0,0.01
2012-3-29,78,66,54,62,58,52,95,77,53,30.11,29.97,8,1,0,0.01
2012-3-30,76,64,59,65,61,58,97,89,63,30.03,29.89,12,2,0,0.15
2012-3-31,77,65,56,65,61,54,100,89,59,29.97,29.84,10,2,0,0.02
2012-4-1,80,67,53,67,60,52,98,79,56,29.97,29.85,10,2,0,0.01
2012-4-2,81,70,59,68,64,58,97,82,57,29.97,29.84,9,2,0,0.01
2012-4-3,80,68,56,65,60,55,98,78,50,30.03,29.92,9,1,0,0.02
2012-4-4,78,67,59,63,61,58,97,82,53,29.96,29.77,13,2,0,0.01
2012-4-5,73,62,55,63,58,51,98,86,56,29.82,29.68,20,3,0,0.01
2012-4-6,68,59,52,54,49,45,95,72,50,30.17,29.83,12,4,0,0.01
2012-4-7,71,58,43,54,48,41,93,73,49,30.32,30.17,8,1,0,0.01
2012-4-8,72,60,48,55,51,47,97,74,45,30.30,30.18,7,1,0,0.01
2012-4-9,71,57,44,50,45,39,95,68,32,30.23,30.11,9,1,0,0.01
2012-4-10,72,59,44,58,48,40,95,70,50,30.15,30.06,11,2,0,0.01
2012-4-11,61,52,40,40,33,28,88,52,30,30.24,30.12,11,3,0,0.01
2012-4-12,63,48,35,45,34,30,89,62,35,30.33,30.19,6,1,0,0.00
2012-4-13,74,58,42,51,43,39,94,63,29,30.28,30.20,6,1,0,0.00
2012-4-14,78,65,52,58,52,44,77,64,47,30.30,30.16,11,2,0,0.00
2012-4-15,80,69,59,64,60,54,88,74,58,30.20,30.09,15,3,0,0.00
2012-4-16,73,68,63,67,64,62,97,88,78,30.25,30.09,16,4,0,0.45
2012-4-17,68,62,55,64,60,53,98,92,80,30.25,30.16,14,3,0,0.53
2012-4-18,67,60,53,60,56,52,96,87,74,30.17,30.08,7,2,0,0.01
2012-4-19,74,63,53,59,56,52,98,80,54,30.11,29.98,6,1,0,0.00
2012-4-20,72,63,57,63,60,55,96,88,66,30.00,29.86,6,1,0,0.00
2012-4-21,68,59,51,60,56,48,98,89,70,29.91,29.81,15,4,0,0.00
2012-4-22,62,53,47,47,43,40,89,70,50,29.94,29.83,16,7,0,0.00
2012-4-23,58,49,42,41,34,25,86,61,29,30.03,29.92,16,4,0,0.00
2012-4-24,68,54,38,46,40,34,85,60,39,30.06,29.94,22,4,0,0.00
2012-4-25,77,66,50,63,55,45,84,68,57,30.00,29.86,16,6,0,0.00
2012-4-26,81,73,63,61,58,53,87,62,42,30.01,29.92,19,9,0,0.00
2012-4-27,79,70,62,69,60,-100,94,76,62,30.09,29.98,13,-17,0,0.00
2012-4-28,80,69,60,64,61,59,96,79,50,30.15,30.05,12,3,0,0.00
2012-4-29,86,71,58,66,62,56,97,75,47,30.19,30.11,10,1,0,0.00
2012-4-30,85,72,57,66,62,56,97,73,46,30.20,30.10,10,2,0,0.00
2012-5-1,86,74,62,67,64,59,92,72,50,30.17,30.04,8,2,0,0.00
2012-5-2,89,75,63,69,65,62,96,74,44,30.16,30.05,8,1,0,0.00
2012-5-3,72,68,64,69,66,63,97,93,82,30.19,30.09,5,0,0,0.09
2012-5-4,82,70,61,70,66,60,98,88,66,30.17,30.03,9,2,0,0.09
2012-5-5,84,74,62,72,68,62,98,82,58,30.09,29.95,10,2,0,0.00
2012-5-6,84,71,64,69,65,62,97,82,54,30.06,29.94,10,2,0,0.01
2012-5-7,79,70,62,69,64,60,95,80,60,30.01,29.86,10,2,0,0.00
2012-5-8,78,68,59,67,63,59,98,86,65,29.99,29.88,6,1,0,0.00
2012-5-9,71,64,55,65,58,50,95,80,52,29.98,29.88,10,2,0,0.00
2012-5-10,73,62,49,55,50,47,95,68,42,30.06,29.95,9,1,0,0.00
2012-5-11,76,64,51,59,51,46,88,65,40,30.18,30.07,5,1,0,0.00
2012-5-12,78,69,63,63,59,55,93,71,57,30.26,30.14,13,1,0,0.00
2012-5-13,69,65,63,66,64,62,97,94,89,30.15,29.99,9,1,0,0.00
2012-5-14,72,66,61,66,63,60,97,91,79,30.05,29.98,7,2,0,0.00
2012-5-15,76,67,59,65,62,58,98,85,63,30.07,30.00,9,2,0,0.00
2012-5-16,80,68,57,64,59,56,97,76,46,30.09,29.98,7,1,0,0.00
2012-5-17,82,70,57,64,59,55,98,71,40,30.06,29.96,10,2,0,0.00
2012-5-18,85,72,59,64,61,57,94,71,46,30.11,30.02,5,0,0,0.00
2012-5-19,83,70,60,70,62,58,95,77,49,30.18,30.08,13,1,0,0.00
2012-5-20,84,72,60,63,60,54,97,69,41,30.20,30.06,6,0,0,0.00
2012-5-21,79,68,62,66,60,-100,97,79,58,30.12,29.98,13,-8,0,0.00
2012-5-22,76,67,62,64,61,59,94,83,61,30.04,29.91,7,2,0,0.00
2012-5-23,81,68,58,64,58,51,98,73,39,29.96,29.88,10,1,0,0.00
2012-5-24,87,74,57,68,62,54,91,68,44,30.00,29.91,10,2,0,0.00
2012-5-25,89,76,63,70,66,61,94,73,49,30.14,29.99,8,2,0,0.00
2012-5-26,90,78,66,72,66,62,96,70,39,30.20,30.09,7,1,0,0.00
2012-5-27,91,79,69,71,68,65,93,70,46,30.13,29.99,8,0,0,0.00
2012-5-28,91,80,69,69,67,65,88,66,45,30.05,29.92,6,1,0,0.00
2012-5-29,88,78,68,70,68,60,93,70,52,29.97,29.82,27,1,0,0.00
2012-5-30,91,76,61,67,60,45,95,62,21,29.93,29.85,9,1,0,0.00
2012-5-31,82,74,67,69,65,61,91,77,52,29.91,29.78,11,2,0,0.00
2012-6-1,74,66,54,66,58,51,96,78,48,29.99,29.80,14,4,0,0.12
2012-6-2,74,63,51,59,53,48,96,72,51,30.08,29.97,13,2,0,0.00
2012-6-3,84,70,57,72,64,56,95,82,62,30.07,29.93,11,2,0,0.00
2012-6-4,76,70,65,70,67,64,97,91,80,29.99,29.83,9,2,0,0.07
2012-6-5,79,72,65,71,67,60,97,84,53,29.87,29.76,13,2,0,0.00
2012-6-6,80,69,61,63,56,-100,91,67,43,30.01,29.86,10,1,0,0.00
2012-6-7,82,72,59,66,60,55,90,70,47,30.07,30.00,10,1,0,0.00
2012-6-8,84,74,61,66,61,57,87,65,45,30.10,29.99,10,1,0,0.00
2012-6-9,85,74,63,65,60,54,92,64,37,30.09,29.98,8,1,0,0.00
2012-6-10,74,70,66,72,68,63,97,94,80,30.05,29.99,5,1,0,0.00
2012-6-11,82,73,68,75,70,66,98,92,75,30.08,29.91,10,4,0,0.01
2012-6-12,81,74,65,69,67,64,95,81,62,30.09,29.99,11,3,0,0.01
2012-6-13,85,77,67,68,65,63,94,70,50,30.07,29.97,10,2,0,0.00
2012-6-14,87,75,66,76,67,-100,90,77,59,30.09,29.99,9,-10,0,0.00
2012-6-15,88,76,66,71,68,65,96,78,50,30.18,30.05,6,1,0,0.00
2012-6-16,85,75,64,68,64,62,97,72,47,30.27,30.12,6,1,0,0.00
2012-6-17,85,74,62,64,62,60,93,69,43,30.19,30.03,7,1,0,0.00
2012-6-18,87,75,63,69,64,60,91,70,42,30.12,30.03,10,2,0,0.00
2012-6-19,89,76,62,69,63,60,93,68,43,30.20,30.10,8,1,0,0.00
2012-6-20,89,77,63,69,64,60,91,68,45,30.21,30.09,7,1,0,0.00
2012-6-21,89,78,65,71,67,63,95,70,49,30.14,29.96,5,0,0,0.00
2012-6-22,90,80,68,71,68,65,94,70,44,30.00,29.89,7,1,0,0.00
2012-6-23,93,83,72,72,67,58,82,62,32,29.98,29.92,6,1,0,0.00
2012-6-24,92,82,68,74,69,62,92,68,37,30.00,29.87,14,1,0,0.00
2012-6-25,94,82,69,73,68,64,92,65,40,29.90,29.73,12,2,0,0.00
2012-6-26,90,80,68,67,58,43,70,49,22,29.91,29.77,14,2,0,0.00
2012-6-27,92,77,61,64,56,50,77,51,26,30.06,29.90,8,1,0,0.00
2012-6-28,99,81,63,69,64,59,88,59,29,30.11,30.01,8,1,0,0.00
2012-6-29,102,84,68,74,67,63,87,60,29,30.05,29.89,6,1,0,0.00
2012-6-30,101,86,70,72,69,67,88,60,34,29.98,29.89,9,1,0,0.00
2012-7-1,100,85,73,75,70,65,88,63,36,30.05,29.93,14,2,0,0.00
2012-7-2,91,79,74,72,69,66,86,72,47,30.17,30.02,14,3,0,0.00
2012-7-3,96,83,70,73,66,55,90,60,27,30.11,29.95,13,2,0,0.00
2012-7-4,93,81,70,71,69,66,89,68,43,30.10,29.98,11,2,0,0.00
2012-7-5,99,81,69,72,70,67,94,71,38,30.13,29.94,22,2,0,0.09
2012-7-6,97,81,69,74,70,67,95,72,46,30.06,29.94,8,1,0,0.09
2012-7-7,94,82,72,75,72,69,91,73,53,30.08,29.98,10,2,0,0.00
2012-7-8,91,80,74,77,72,70,90,76,52,30.10,29.95,13,3,0,0.01
2012-7-9,91,80,70,73,71,69,96,76,51,30.05,29.92,10,2,0,0.02
2012-7-10,92,75,70,72,66,-100,97,78,39,30.06,29.94,11,-18,0,0.17
2012-7-11,83,72,68,73,70,67,98,92,69,30.11,30.02,22,1,0,0.22
2012-7-12,78,71,69,72,70,67,98,95,78,30.11,30.05,13,1,0,0.00
2012-7-13,89,78,69,73,70,68,98,78,52,30.16,30.06,8,1,0,0.00
2012-7-14,90,79,72,75,72,70,94,81,52,30.18,30.07,8,1,0,0.00
2012-7-15,90,79,70,75,72,69,97,80,56,30.22,30.09,8,1,0,0.00
2012-7-16,90,78,71,76,73,70,96,84,62,30.14,30.01,7,1,0,0.00
2012-7-17,88,80,71,77,74,70,97,83,62,30.09,29.97,8,1,0,0.00
2012-7-18,87,75,69,78,72,68,96,89,71,30.11,30.00,9,2,0,0.00
2012-7-19,88,78,70,77,73,69,97,86,65,30.14,30.00,6,2,0,0.00
2012-7-20,85,79,74,78,75,73,97,88,75,30.05,29.95,11,4,0,0.00
2012-7-21,86,78,71,76,74,69,97,86,68,30.12,29.98,10,3,0,0.00
2012-7-22,90,79,71,75,72,69,97,82,57,30.21,30.12,13,2,0,0.00
2012-7-23,91,81,71,76,73,70,97,78,55,30.26,30.11,8,1,0,0.00
2012-7-24,90,81,71,77,74,70,96,80,57,30.16,30.02,7,1,0,0.00
2012-7-25,92,82,72,77,73,70,97,78,55,30.08,29.95,10,2,0,0.00
2012-7-26,92,82,72,76,73,71,96,77,54,30.03,29.89,10,3,0,0.00
2012-7-27,88,78,71,78,74,70,95,85,68,30.04,29.95,13,2,0,0.00
2012-7-28,91,79,71,76,69,-100,98,79,55,30.13,30.00,17,-10,0,0.00
2012-7-29,86,79,68,74,70,65,97,75,51,30.11,30.00,11,2,0,0.00
2012-7-30,92,80,68,76,72,67,96,78,55,30.08,29.93,11,1,0,0.00
2012-7-31,86,78,71,77,73,70,96,87,71,30.00,29.91,13,4,0,0.00
2012-8-1,93,83,74,79,75,67,98,79,51,30.00,29.89,10,2,0,0.00
2012-8-2,91,78,70,74,71,68,95,80,55,29.98,29.90,17,1,0,0.00
2012-8-3,85,78,72,78,74,70,96,88,73,30.03,29.93,9,2,0,0.00
2012-8-4,90,79,71,76,72,70,97,80,59,30.15,30.01,9,2,0,0.00
2012-8-5,90,80,71,75,72,69,96,78,57,30.22,30.07,8,1,0,0.00
2012-8-6,89,78,71,76,73,68,96,85,60,30.15,30.01,11,0,0,0.26
2012-8-7,88,78,71,76,73,70,98,87,64,30.06,29.96,12,1,0,0.01
2012-8-8,89,79,70,78,74,70,98,85,64,30.08,29.96,6,1,0,0.01
2012-8-9,82,76,71,75,73,69,96,88,73,30.00,29.86,9,2,0,0.00
2012-8-10,84,74,69,76,71,67,98,90,73,29.93,29.84,11,3,0,0.01
2012-8-11,82,73,63,70,64,59,96,75,48,30.05,29.89,9,2,0,0.00
2012-8-12,82,70,57,66,60,56,98,73,45,30.12,30.04,10,1,0,0.00
2012-8-13,80,69,59,71,65,57,97,88,67,30.09,30.00,9,1,0,0.00
2012-8-14,85,76,69,74,71,68,98,85,60,30.04,29.92,9,3,0,0.00
2012-8-15,82,73,66,72,69,65,98,87,65,30.08,29.97,6,1,0,0.00
2012-8-16,89,77,66,73,70,66,98,81,56,30.11,29.96,9,1,0,0.00
2012-8-17,80,74,67,71,69,65,96,85,71,30.07,29.96,13,2,0,0.00
2012-8-18,81,74,70,71,70,69,96,86,68,30.00,29.89,7,1,0,0.00
2012-8-19,80,72,66,71,68,63,98,88,58,29.95,29.89,6,1,0,0.00
2012-8-20,81,71,60,67,61,55,98,73,42,30.03,29.95,7,1,0,0.00
2012-8-21,83,70,62,63,56,-100,94,68,36,30.11,30.02,8,-21,0,0.00
2012-8-22,85,72,60,65,61,56,95,72,40,30.18,30.10,10,1,0,0.00
2012-8-23,86,73,61,67,62,59,96,70,40,30.20,30.10,9,1,0,0.00
2012-8-24,90,76,62,67,63,58,93,69,35,30.18,30.06,5,0,0,0.00
2012-8-25,86,76,69,72,68,65,94,79,54,30.17,30.09,7,1,0,0.00
2012-8-26,89,76,64,71,66,64,98,76,48,30.22,30.08,7,0,0,0.00
2012-8-27,90,78,66,70,67,64,93,71,48,30.15,29.98,9,1,0,0.00
2012-8-28,79,75,71,74,70,65,93,84,78,30.03,29.95,7,1,0,0.00
2012-8-29,88,80,74,74,72,71,95,80,60,30.03,29.93,5,1,0,0.00
2012-8-30,81,77,74,74,72,71,92,86,77,30.09,29.95,6,1,0,0.00
2012-9-4,84,76,72,76,69,-100,98,89,77,29.95,0.00,3,-14,0,0.01
2012-9-5,86,77,72,74,73,71,97,86,66,29.99,29.89,8,1,0,0.01
2012-9-6,88,76,70,75,72,69,97,85,61,30.04,29.91,6,0,0,0.01
2012-9-7,90,78,68,75,71,67,98,81,52,30.02,29.84,5,0,0,0.00
2012-9-8,76,71,62,73,68,59,97,90,82,30.00,29.83,10,2,0,0.00
2012-9-9,77,66,55,60,56,53,94,73,49,30.11,29.97,10,2,0,0.00
2012-9-10,81,67,55,62,57,54,99,73,42,30.19,30.10,7,1,0,0.00
2012-9-11,83,68,59,64,60,57,93,76,42,30.28,30.16,13,1,0,0.00
2012-9-12,82,71,61,62,60,58,89,71,45,30.35,30.24,7,0,0,0.00
2012-9-13,82,70,60,64,60,58,93,73,47,30.35,30.23,7,0,0,0.00
2012-9-14,80,69,59,67,62,57,93,80,58,30.29,30.21,7,0,0,0.00
2012-9-15,83,71,61,66,62,59,97,76,46,30.25,30.14,5,0,0,0.00
2012-9-16,84,72,64,69,62,-100,93,76,54,30.15,30.04,5,-10,0,0.00
2012-9-17,81,72,68,71,69,66,97,89,70,30.06,29.78,14,2,0,0.00
2012-9-18,74,67,59,69,64,52,97,89,74,30.06,29.74,13,4,0,0.00
2012-9-19,72,61,52,55,50,46,92,70,46,30.17,30.06,13,1,0,0.00
2012-9-20,79,62,51,62,55,50,98,81,46,30.18,30.08,4,0,0,0.00
2012-9-21,80,66,53,62,58,52,98,77,45,30.15,30.01,8,1,0,0.00
2012-9-22,81,68,57,66,59,53,97,75,40,30.16,30.04,15,3,0,0.00
2012-9-23,74,61,51,56,49,40,97,68,31,30.27,30.15,10,2,0,0.00
2012-9-24,73,58,45,53,47,43,91,68,41,30.30,30.19,5,0,0,0.00
2012-9-25,80,65,52,59,54,48,90,69,42,30.26,30.17,8,1,0,0.00
2012-9-26,83,68,56,66,60,54,94,77,52,30.25,30.16,9,1,0,0.00
2012-9-27,84,71,59,69,63,57,96,79,50,30.25,30.12,8,1,0,0.00
2012-9-28,84,71,62,69,64,61,97,81,49,30.17,30.05,8,1,0,0.00
2012-9-29,77,70,64,69,66,58,97,85,71,30.08,29.95,9,1,0,0.00
2012-9-30,71,64,58,65,60,55,97,89,73,29.98,29.76,5,1,0,0.00
2012-10-1,81,71,65,73,68,63,98,90,71,29.76,29.56,14,4,0,0.00
2012-10-2,65,61,53,63,59,52,97,92,86,30.06,29.68,11,3,0,0.00
2012-10-3,74,61,51,61,56,50,98,85,56,30.26,30.06,5,0,0,0.00
2012-10-4,78,64,52,64,58,51,98,82,54,30.35,30.25,6,0,0,0.00
2012-10-5,80,66,55,64,59,55,98,80,51,30.27,30.06,10,1,0,0.00
2012-10-6,62,57,54,61,55,50,97,93,86,30.14,30.04,7,2,0,0.00
2012-10-7,56,52,48,50,46,43,92,81,63,30.25,30.10,15,2,0,0.00
2012-10-8,56,51,48,49,47,44,94,85,75,30.27,30.16,11,2,0,0.00
2012-10-9,67,54,43,54,48,42,97,82,54,30.24,30.10,5,0,0,0.00
2012-10-10,70,59,48,59,54,47,97,84,66,30.26,30.13,10,2,0,0.00
2012-10-11,70,59,46,58,51,44,96,77,51,30.37,30.26,5,0,0,0.00
2012-10-12,71,64,57,67,62,56,96,92,85,30.38,30.26,9,1,0,0.00
2012-10-13,79,68,60,65,62,58,97,81,62,30.36,30.21,9,1,0,0.00
2012-10-14,75,68,62,66,63,58,92,84,73,30.25,29.98,11,3,0,0.00
2012-10-15,72,61,49,66,50,-100,98,76,41,30.05,29.97,14,-20,0,0.00
2012-10-16,71,57,44,56,49,43,98,77,40,30.09,29.94,6,0,0,0.00
2012-10-17,75,62,49,55,50,47,97,70,38,29.98,29.76,14,1,0,0.00
2012-10-18,71,62,49,62,52,39,97,73,34,29.91,29.77,13,3,0,0.00
2012-10-19,67,57,44,45,40,-100,87,59,31,29.92,29.82,26,4,0,0.00
2012-10-20,66,53,42,49,45,41,96,77,53,30.09,29.92,11,2,0,0.00
2012-10-21,76,58,43,57,49,42,97,76,42,30.25,30.09,6,0,0,0.00
2012-10-22,80,63,50,57,52,48,95,72,42,30.28,30.16,7,1,0,0.00
2012-10-23,79,63,52,56,53,49,95,72,40,30.24,30.13,8,1,0,0.00
2012-10-24,80,63,48,59,54,47,97,76,44,30.23,30.11,7,0,0,0.00
2012-10-25,79,65,52,62,57,51,96,79,52,30.15,30.06,10,0,0,0.00
2012-10-26,80,65,52,66,59,49,96,81,60,30.11,29.97,9,1,0,0.00
2012-10-27,52,49,47,49,46,44,94,89,82,30.07,29.98,13,6,0,0.00
2012-10-28,55,50,46,46,41,35,92,74,49,30.09,29.97,17,8,0,0.00
2012-10-29,52,45,38,36,30,24,80,58,38,30.13,29.97,21,8,0,0.00
2012-10-30,54,46,40,30,28,25,65,52,36,29.97,29.88,19,7,0,0.00
2012-10-31,61,48,32,35,31,24,90,57,26,30.04,29.96,14,4,0,0.00
2012-11-1,62,46,31,37,29,22,90,58,24,30.13,30.03,10,2,0,0.00
2012-11-2,74,56,40,53,44,37,88,68,39,30.11,30.02,10,2,0,0.00
2012-11-3,78,62,44,59,51,42,93,71,48,30.18,30.03,15,3,0,0.00
2012-11-4,61,54,39,57,48,36,96,81,58,30.18,30.06,10,2,0,0.00
2012-11-5,59,47,34,46,40,33,97,77,46,30.19,30.04,6,0,0,0.01
2012-11-6,49,47,44,46,45,43,96,93,84,30.08,30.02,7,1,0,0.03
2012-11-7,51,45,40,46,42,39,97,89,72,30.19,29.99,13,3,0,0.02
2012-11-8,56,44,36,43,40,35,97,85,57,30.32,30.19,6,1,0,0.01
2012-11-9,67,48,33,46,39,32,98,77,33,30.41,30.28,6,0,0,0.01
2012-11-10,70,53,39,48,42,36,93,68,35,30.42,30.30,9,1,0,0.01
2012-11-11,70,58,43,53,47,38,81,68,53,30.41,30.25,7,1,0,0.00
2012-11-12,62,54,39,59,50,35,96,87,74,30.45,30.22,13,4,0,0.00
2012-11-13,52,42,34,34,29,27,83,62,41,30.52,30.40,13,4,0,0.00
2012-11-14,51,44,35,42,36,29,88,72,58,30.46,30.34,11,1,0,0.00
2012-11-15,58,47,37,44,39,35,93,76,54,30.39,30.30,8,1,0,0.00
2012-11-16,60,47,34,39,34,27,94,65,29,30.42,30.34,12,1,0,0.00
2012-11-17,61,47,35,39,34,31,84,64,35,30.52,30.41,11,2,0,0.00
2012-11-18,62,49,34,41,36,29,84,62,42,30.50,30.38,7,1,0,0.00
2012-11-19,63,49,36,47,40,33,92,75,50,30.41,30.26,8,1,0,0.00
2012-11-20,66,52,39,49,44,38,97,76,49,30.28,30.16,6,1,0,0.00
2012-11-21,67,55,44,51,47,42,95,76,52,30.27,30.18,7,1,0,0.00
2012-11-22,70,53,39,50,44,38,97,74,37,30.32,30.23,8,1,0,0.00
2012-11-23,64,50,41,52,44,34,95,81,66,30.26,30.18,9,2,0,0.00
2012-11-24,44,37,28,34,26,22,88,65,43,30.35,30.25,13,4,0,0.00
2012-11-25,56,39,24,28,25,22,92,61,27,30.31,30.17,12,1,0,0.04
2012-11-26,64,50,31,46,37,26,87,65,41,30.29,30.18,7,1,0,0.04
2012-11-27,58,48,41,54,45,37,96,89,66,30.38,30.15,10,4,0,0.00
2012-11-28,51,41,32,37,32,25,92,73,40,30.52,30.38,10,2,0,0.01
2012-11-29,62,42,28,35,30,27,94,66,29,30.53,30.39,10,1,0,0.00
2012-11-30,63,50,35,51,44,33,95,81,63,30.44,30.32,12,1,0,0.00
2012-12-1,68,55,43,52,47,42,97,78,52,30.41,30.31,13,1,0,0.00
2012-12-2,71,58,47,55,50,44,90,75,54,30.41,30.29,13,2,0,0.00
2012-12-3,71,59,47,57,52,45,95,78,56,30.36,30.25,15,1,0,0.00
2012-12-4,70,62,54,61,57,51,97,84,67,30.34,30.23,13,3,0,0.01
2012-12-5,61,57,51,59,55,46,97,94,82,30.30,30.17,7,2,0,0.07
2012-12-6,68,57,50,57,50,44,92,78,66,30.20,30.08,9,2,0,0.08
2012-12-7,65,56,51,56,51,45,89,82,72,30.13,30.01,8,1,0,0.00
2012-12-8,66,60,55,61,58,52,97,92,85,30.08,30.01,7,1,0,0.00
2012-12-9,68,62,58,60,58,56,97,86,73,30.11,29.92,14,3,0,0.00
2012-12-10,65,54,39,62,52,35,98,93,83,30.02,29.74,23,6,0,0.01
2012-12-11,39,36,32,35,31,30,91,83,74,30.29,30.01,13,4,0,0.01
2012-12-12,50,41,34,34,30,26,85,66,44,30.38,30.28,10,2,0,0.01
2012-12-13,55,42,32,39,31,26,85,67,40,30.47,30.36,8,0,0,0.00
2012-12-14,58,45,31,41,37,29,95,74,51,30.45,30.24,7,1,0,0.00
2012-12-15,62,54,47,54,47,40,84,78,68,30.26,30.04,14,2,0,0.00
2012-12-16,60,58,55,59,56,53,98,94,84,30.04,29.86,10,2,0,0.00
2012-12-17,61,55,51,58,51,-100,98,92,86,29.88,29.73,13,-8,0,0.00
2012-12-18,58,47,35,48,39,34,97,77,49,30.07,29.84,12,1,0,0.00
2012-12-19,68,53,39,48,42,36,92,69,36,30.17,30.05,9,1,0,0.00
2012-12-20,57,48,37,55,40,23,97,74,56,30.09,29.73,25,8,0,0.00
2012-12-21,43,36,31,23,20,16,65,53,38,30.37,30.07,17,9,0,0.00
2012-12-22,51,37,27,25,18,11,73,50,23,30.46,30.29,10,2,0,0.02
2012-12-23,54,45,32,45,31,22,94,60,37,30.29,30.05,12,3,0,0.17
2012-12-24,64,53,45,56,50,44,98,91,69,30.04,29.88,15,2,0,0.01
2012-12-25,52,47,41,51,45,-100,98,96,94,30.07,29.55,23,-6,0,0.01
2012-12-26,53,38,32,52,35,29,96,90,83,30.18,29.51,27,11,0,0.01
2012-12-27,37,33,29,31,29,27,95,87,78,30.27,30.18,10,3,0,0.01
2012-12-28,43,38,29,40,34,28,95,87,70,30.20,29.88,11,2,0,0.16
2012-12-29,42,36,30,41,32,25,97,88,80,30.44,29.91,15,6,0,0.16
2012-12-30,41,32,27,27,25,22,90,74,51,30.61,30.44,12,3,0,0.08
2012-12-31,50,41,30,43,31,26,89,68,49,30.49,30.16,8,1,0,0.09
2013-1-1,51,49,40,51,47,39,98,94,75,30.16,30.02,15,2,0,0.02